sensor_id;sensor_type;location;lat;lon;timestamp;P1;durP1;ratioP1;P2;durP2;ratioP2
32038;SDS011;18549;42.286;22.688;2023-01-19T00:01:51;73.03;;;10.73;;
32038;SDS011;18549;42.286;22.688;2023-01-19T00:04:18;90.10;;;11.47;;
32038;SDS011;18549;42.286;22.688;2023-01-19T00:06:46;57.13;;;9.93;;
32038;SDS011;18549;42.286;22.688;2023-01-19T00:09:13;69.00;;;12.97;;
32038;SDS011;18549;42.286;22.688;2023-01-19T00:11:40;85.67;;;11.37;;
32038;SDS011;18549;42.286;22.688;2023-01-19T00:14:06;79.27;;;10.93;;
32038;SDS011;18549;42.286;22.688;2023-01-19T00:16:33;72.20;;;11.93;;
32038;SDS011;18549;42.286;22.688;2023-01-19T00:19:00;67.40;;;10.53;;
32038;SDS011;18549;42.286;22.688;2023-01-19T00:21:27;88.50;;;12.70;;
32038;SDS011;18549;42.286;22.688;2023-01-19T00:23:55;62.30;;;9.37;;
32038;SDS011;18549;42.286;22.688;2023-01-19T00:26:22;85.80;;;13.63;;
32038;SDS011;18549;42.286;22.688;2023-01-19T00:28:49;83.43;;;13.93;;
32038;SDS011;18549;42.286;22.688;2023-01-19T00:31:17;84.73;;;11.10;;
32038;SDS011;18549;42.286;22.688;2023-01-19T00:33:45;53.67;;;10.90;;
32038;SDS011;18549;42.286;22.688;2023-01-19T00:36:13;68.67;;;11.43;;
32038;SDS011;18549;42.286;22.688;2023-01-19T00:38:40;66.83;;;12.60;;
32038;SDS011;18549;42.286;22.688;2023-01-19T00:41:09;67.77;;;11.23;;
32038;SDS011;18549;42.286;22.688;2023-01-19T00:43:35;79.97;;;13.77;;
32038;SDS011;18549;42.286;22.688;2023-01-19T00:46:01;79.67;;;11.40;;
32038;SDS011;18549;42.286;22.688;2023-01-19T00:48:28;79.33;;;10.87;;
32038;SDS011;18549;42.286;22.688;2023-01-19T00:50:55;77.87;;;12.23;;
32038;SDS011;18549;42.286;22.688;2023-01-19T00:53:22;67.57;;;11.27;;
32038;SDS011;18549;42.286;22.688;2023-01-19T00:55:49;79.50;;;11.60;;
32038;SDS011;18549;42.286;22.688;2023-01-19T00:58:17;73.70;;;10.90;;
32038;SDS011;18549;42.286;22.688;2023-01-19T01:00:43;83.33;;;10.87;;
32038;SDS011;18549;42.286;22.688;2023-01-19T01:03:10;82.30;;;12.60;;
32038;SDS011;18549;42.286;22.688;2023-01-19T01:05:39;92.90;;;11.20;;
32038;SDS011;18549;42.286;22.688;2023-01-19T01:08:06;75.63;;;11.53;;
32038;SDS011;18549;42.286;22.688;2023-01-19T01:10:33;66.70;;;12.57;;
32038;SDS011;18549;42.286;22.688;2023-01-19T01:12:59;72.63;;;12.27;;
32038;SDS011;18549;42.286;22.688;2023-01-19T01:15:28;79.13;;;11.73;;
32038;SDS011;18549;42.286;22.688;2023-01-19T01:17:54;81.97;;;11.13;;
32038;SDS011;18549;42.286;22.688;2023-01-19T01:20:22;75.33;;;11.03;;
32038;SDS011;18549;42.286;22.688;2023-01-19T01:22:51;78.77;;;10.13;;
32038;SDS011;18549;42.286;22.688;2023-01-19T01:25:20;75.80;;;12.67;;
32038;SDS011;18549;42.286;22.688;2023-01-19T01:27:48;65.63;;;12.00;;
32038;SDS011;18549;42.286;22.688;2023-01-19T01:30:15;79.90;;;11.50;;
32038;SDS011;18549;42.286;22.688;2023-01-19T01:32:44;94.70;;;13.57;;
32038;SDS011;18549;42.286;22.688;2023-01-19T01:35:11;91.07;;;13.30;;
32038;SDS011;18549;42.286;22.688;2023-01-19T01:37:38;71.93;;;10.43;;
32038;SDS011;18549;42.286;22.688;2023-01-19T01:40:07;69.90;;;8.90;;
32038;SDS011;18549;42.286;22.688;2023-01-19T01:42:36;60.83;;;10.47;;
32038;SDS011;18549;42.286;22.688;2023-01-19T01:45:06;63.53;;;12.47;;
32038;SDS011;18549;42.286;22.688;2023-01-19T01:47:49;74.97;;;10.63;;
32038;SDS011;18549;42.286;22.688;2023-01-19T01:50:19;98.43;;;13.97;;
32038;SDS011;18549;42.286;22.688;2023-01-19T01:52:48;73.37;;;12.23;;
32038;SDS011;18549;42.286;22.688;2023-01-19T01:55:16;98.10;;;12.73;;
32038;SDS011;18549;42.286;22.688;2023-01-19T01:57:47;71.20;;;10.80;;
32038;SDS011;18549;42.286;22.688;2023-01-19T02:00:17;65.30;;;11.50;;
32038;SDS011;18549;42.286;22.688;2023-01-19T02:02:44;66.40;;;11.40;;
32038;SDS011;18549;42.286;22.688;2023-01-19T02:05:21;87.67;;;10.30;;
32038;SDS011;18549;42.286;22.688;2023-01-19T02:07:53;64.43;;;9.80;;
32038;SDS011;18549;42.286;22.688;2023-01-19T02:10:41;70.53;;;9.43;;
32038;SDS011;18549;42.286;22.688;2023-01-19T02:13:26;61.00;;;9.80;;
32038;SDS011;18549;42.286;22.688;2023-01-19T02:15:54;72.10;;;12.17;;
32038;SDS011;18549;42.286;22.688;2023-01-19T02:18:23;62.90;;;12.70;;
32038;SDS011;18549;42.286;22.688;2023-01-19T02:20:58;90.63;;;12.90;;
32038;SDS011;18549;42.286;22.688;2023-01-19T02:23:37;80.37;;;10.37;;
32038;SDS011;18549;42.286;22.688;2023-01-19T02:26:06;59.73;;;9.27;;
32038;SDS011;18549;42.286;22.688;2023-01-19T02:28:35;51.17;;;8.83;;
32038;SDS011;18549;42.286;22.688;2023-01-19T02:31:04;48.53;;;8.90;;
32038;SDS011;18549;42.286;22.688;2023-01-19T02:33:31;80.20;;;10.73;;
32038;SDS011;18549;42.286;22.688;2023-01-19T02:35:58;56.07;;;10.60;;
32038;SDS011;18549;42.286;22.688;2023-01-19T02:38:25;64.27;;;8.67;;
32038;SDS011;18549;42.286;22.688;2023-01-19T02:40:55;57.83;;;8.07;;
32038;SDS011;18549;42.286;22.688;2023-01-19T02:43:24;57.37;;;9.80;;
32038;SDS011;18549;42.286;22.688;2023-01-19T02:45:53;52.20;;;9.23;;
32038;SDS011;18549;42.286;22.688;2023-01-19T02:48:20;53.97;;;9.57;;
32038;SDS011;18549;42.286;22.688;2023-01-19T02:50:48;56.30;;;9.03;;
32038;SDS011;18549;42.286;22.688;2023-01-19T02:56:17;34.80;;;6.27;;
32038;SDS011;18549;42.286;22.688;2023-01-19T02:58:55;71.63;;;8.80;;
32038;SDS011;18549;42.286;22.688;2023-01-19T03:01:30;59.20;;;10.23;;
32038;SDS011;18549;42.286;22.688;2023-01-19T03:04:08;66.60;;;8.47;;
32038;SDS011;18549;42.286;22.688;2023-01-19T03:06:43;45.83;;;6.37;;
32038;SDS011;18549;42.286;22.688;2023-01-19T03:09:16;60.37;;;8.57;;
32038;SDS011;18549;42.286;22.688;2023-01-19T03:11:53;48.83;;;8.03;;
32038;SDS011;18549;42.286;22.688;2023-01-19T03:14:27;66.70;;;10.03;;
32038;SDS011;18549;42.286;22.688;2023-01-19T03:16:56;62.33;;;9.80;;
32038;SDS011;18549;42.286;22.688;2023-01-19T03:19:27;69.73;;;9.17;;
32038;SDS011;18549;42.286;22.688;2023-01-19T03:21:59;61.53;;;9.00;;
32038;SDS011;18549;42.286;22.688;2023-01-19T03:24:28;51.13;;;8.30;;
32038;SDS011;18549;42.286;22.688;2023-01-19T03:27:00;58.47;;;8.33;;
32038;SDS011;18549;42.286;22.688;2023-01-19T03:29:31;68.17;;;11.13;;
32038;SDS011;18549;42.286;22.688;2023-01-19T03:32:04;61.97;;;7.93;;
32038;SDS011;18549;42.286;22.688;2023-01-19T03:34:34;55.20;;;7.50;;
32038;SDS011;18549;42.286;22.688;2023-01-19T03:37:04;61.00;;;7.90;;
32038;SDS011;18549;42.286;22.688;2023-01-19T03:39:32;58.37;;;8.53;;
32038;SDS011;18549;42.286;22.688;2023-01-19T03:42:01;45.67;;;7.00;;
32038;SDS011;18549;42.286;22.688;2023-01-19T03:44:31;53.57;;;7.60;;
32038;SDS011;18549;42.286;22.688;2023-01-19T03:47:02;36.90;;;8.03;;
32038;SDS011;18549;42.286;22.688;2023-01-19T03:49:31;59.23;;;9.17;;
32038;SDS011;18549;42.286;22.688;2023-01-19T03:51:59;50.07;;;7.93;;
32038;SDS011;18549;42.286;22.688;2023-01-19T03:54:26;43.97;;;7.00;;
32038;SDS011;18549;42.286;22.688;2023-01-19T03:56:53;54.93;;;8.43;;
32038;SDS011;18549;42.286;22.688;2023-01-19T03:59:21;59.00;;;8.03;;
32038;SDS011;18549;42.286;22.688;2023-01-19T04:01:48;56.43;;;6.83;;
32038;SDS011;18549;42.286;22.688;2023-01-19T04:04:14;45.40;;;7.00;;
32038;SDS011;18549;42.286;22.688;2023-01-19T04:06:41;60.13;;;9.40;;
32038;SDS011;18549;42.286;22.688;2023-01-19T04:09:08;53.70;;;8.33;;
32038;SDS011;18549;42.286;22.688;2023-01-19T04:11:35;47.80;;;7.03;;
32038;SDS011;18549;42.286;22.688;2023-01-19T04:14:02;54.37;;;8.30;;
32038;SDS011;18549;42.286;22.688;2023-01-19T04:16:31;48.43;;;7.27;;
32038;SDS011;18549;42.286;22.688;2023-01-19T04:18:57;47.43;;;7.57;;
32038;SDS011;18549;42.286;22.688;2023-01-19T04:21:24;43.83;;;7.43;;
32038;SDS011;18549;42.286;22.688;2023-01-19T04:23:51;55.07;;;7.43;;
32038;SDS011;18549;42.286;22.688;2023-01-19T04:26:18;43.03;;;7.93;;
32038;SDS011;18549;42.286;22.688;2023-01-19T04:28:45;65.33;;;9.40;;
32038;SDS011;18549;42.286;22.688;2023-01-19T04:31:12;49.47;;;7.53;;
32038;SDS011;18549;42.286;22.688;2023-01-19T04:33:40;54.27;;;7.40;;
32038;SDS011;18549;42.286;22.688;2023-01-19T04:36:07;63.43;;;10.33;;
32038;SDS011;18549;42.286;22.688;2023-01-19T04:38:34;55.13;;;8.10;;
32038;SDS011;18549;42.286;22.688;2023-01-19T04:41:01;56.87;;;8.17;;
32038;SDS011;18549;42.286;22.688;2023-01-19T04:43:27;62.40;;;10.07;;
32038;SDS011;18549;42.286;22.688;2023-01-19T04:45:54;51.27;;;7.30;;
32038;SDS011;18549;42.286;22.688;2023-01-19T04:48:21;55.07;;;9.50;;
32038;SDS011;18549;42.286;22.688;2023-01-19T04:50:50;58.50;;;9.50;;
32038;SDS011;18549;42.286;22.688;2023-01-19T04:53:17;50.37;;;9.27;;
32038;SDS011;18549;42.286;22.688;2023-01-19T04:55:44;45.67;;;8.07;;
32038;SDS011;18549;42.286;22.688;2023-01-19T04:58:12;49.83;;;6.30;;
32038;SDS011;18549;42.286;22.688;2023-01-19T05:00:39;42.97;;;8.03;;
32038;SDS011;18549;42.286;22.688;2023-01-19T05:03:06;66.47;;;9.50;;
32038;SDS011;18549;42.286;22.688;2023-01-19T05:05:36;53.10;;;8.03;;
32038;SDS011;18549;42.286;22.688;2023-01-19T05:08:04;72.17;;;8.07;;
32038;SDS011;18549;42.286;22.688;2023-01-19T05:10:31;56.23;;;9.30;;
32038;SDS011;18549;42.286;22.688;2023-01-19T05:12:58;75.43;;;11.53;;
32038;SDS011;18549;42.286;22.688;2023-01-19T05:15:25;55.73;;;9.67;;
32038;SDS011;18549;42.286;22.688;2023-01-19T05:17:51;53.00;;;9.13;;
32038;SDS011;18549;42.286;22.688;2023-01-19T05:20:18;67.20;;;9.30;;
32038;SDS011;18549;42.286;22.688;2023-01-19T05:22:47;104.03;;;24.97;;
32038;SDS011;18549;42.286;22.688;2023-01-19T05:25:16;55.20;;;8.03;;
32038;SDS011;18549;42.286;22.688;2023-01-19T05:27:43;69.07;;;10.33;;
32038;SDS011;18549;42.286;22.688;2023-01-19T05:30:10;119.23;;;26.40;;
32038;SDS011;18549;42.286;22.688;2023-01-19T05:32:37;55.83;;;11.03;;
32038;SDS011;18549;42.286;22.688;2023-01-19T05:35:04;66.87;;;11.43;;
32038;SDS011;18549;42.286;22.688;2023-01-19T05:37:32;67.20;;;12.73;;
32038;SDS011;18549;42.286;22.688;2023-01-19T05:39:59;75.87;;;13.20;;
32038;SDS011;18549;42.286;22.688;2023-01-19T05:42:27;72.10;;;13.47;;
32038;SDS011;18549;42.286;22.688;2023-01-19T05:44:53;84.47;;;10.33;;
32038;SDS011;18549;42.286;22.688;2023-01-19T05:47:20;83.10;;;12.40;;
32038;SDS011;18549;42.286;22.688;2023-01-19T05:49:47;81.97;;;12.60;;
32038;SDS011;18549;42.286;22.688;2023-01-19T05:52:14;61.58;;;12.88;;
32038;SDS011;18549;42.286;22.688;2023-01-19T05:54:40;66.10;;;10.43;;
32038;SDS011;18549;42.286;22.688;2023-01-19T05:57:07;101.37;;;11.67;;
32038;SDS011;18549;42.286;22.688;2023-01-19T05:59:36;92.47;;;11.30;;
32038;SDS011;18549;42.286;22.688;2023-01-19T06:02:02;85.90;;;14.13;;
32038;SDS011;18549;42.286;22.688;2023-01-19T06:04:29;72.13;;;11.83;;
32038;SDS011;18549;42.286;22.688;2023-01-19T06:06:56;70.70;;;13.83;;
32038;SDS011;18549;42.286;22.688;2023-01-19T06:09:23;57.07;;;11.57;;
32038;SDS011;18549;42.286;22.688;2023-01-19T06:11:50;104.03;;;11.43;;
32038;SDS011;18549;42.286;22.688;2023-01-19T06:14:18;66.33;;;10.93;;
32038;SDS011;18549;42.286;22.688;2023-01-19T06:16:46;72.40;;;12.73;;
32038;SDS011;18549;42.286;22.688;2023-01-19T06:19:13;75.97;;;13.23;;
32038;SDS011;18549;42.286;22.688;2023-01-19T06:21:40;82.50;;;12.87;;
32038;SDS011;18549;42.286;22.688;2023-01-19T06:24:13;58.43;;;11.90;;
32038;SDS011;18549;42.286;22.688;2023-01-19T06:26:40;80.63;;;14.20;;
32038;SDS011;18549;42.286;22.688;2023-01-19T06:29:07;86.53;;;12.50;;
32038;SDS011;18549;42.286;22.688;2023-01-19T06:31:34;61.10;;;10.37;;
32038;SDS011;18549;42.286;22.688;2023-01-19T06:34:02;60.00;;;12.20;;
32038;SDS011;18549;42.286;22.688;2023-01-19T06:36:29;78.87;;;12.33;;
32038;SDS011;18549;42.286;22.688;2023-01-19T06:38:56;60.77;;;12.13;;
32038;SDS011;18549;42.286;22.688;2023-01-19T06:41:23;67.83;;;12.57;;
32038;SDS011;18549;42.286;22.688;2023-01-19T06:43:50;88.97;;;15.57;;
32038;SDS011;18549;42.286;22.688;2023-01-19T06:46:19;64.50;;;11.67;;
32038;SDS011;18549;42.286;22.688;2023-01-19T06:48:46;144.50;;;58.37;;
32038;SDS011;18549;42.286;22.688;2023-01-19T06:51:14;64.60;;;13.43;;
32038;SDS011;18549;42.286;22.688;2023-01-19T06:53:40;65.17;;;20.73;;
32038;SDS011;18549;42.286;22.688;2023-01-19T06:56:07;72.50;;;12.23;;
32038;SDS011;18549;42.286;22.688;2023-01-19T06:58:34;72.70;;;13.63;;
32038;SDS011;18549;42.286;22.688;2023-01-19T07:01:04;79.40;;;11.17;;
32038;SDS011;18549;42.286;22.688;2023-01-19T07:03:31;75.53;;;11.50;;
32038;SDS011;18549;42.286;22.688;2023-01-19T07:05:59;68.67;;;11.60;;
32038;SDS011;18549;42.286;22.688;2023-01-19T07:08:28;87.83;;;17.73;;
32038;SDS011;18549;42.286;22.688;2023-01-19T07:10:57;104.67;;;16.50;;
32038;SDS011;18549;42.286;22.688;2023-01-19T07:13:24;84.60;;;18.27;;
32038;SDS011;18549;42.286;22.688;2023-01-19T07:15:54;85.57;;;20.60;;
32038;SDS011;18549;42.286;22.688;2023-01-19T07:18:21;63.23;;;15.27;;
32038;SDS011;18549;42.286;22.688;2023-01-19T07:20:48;92.60;;;17.83;;
32038;SDS011;18549;42.286;22.688;2023-01-19T07:23:15;108.37;;;15.27;;
32038;SDS011;18549;42.286;22.688;2023-01-19T07:25:44;68.77;;;15.23;;
32038;SDS011;18549;42.286;22.688;2023-01-19T07:28:11;75.90;;;14.37;;
32038;SDS011;18549;42.286;22.688;2023-01-19T07:30:40;70.00;;;12.03;;
32038;SDS011;18549;42.286;22.688;2023-01-19T07:33:07;78.83;;;11.20;;
32038;SDS011;18549;42.286;22.688;2023-01-19T07:35:34;67.73;;;11.37;;
32038;SDS011;18549;42.286;22.688;2023-01-19T07:38:01;84.47;;;13.20;;
32038;SDS011;18549;42.286;22.688;2023-01-19T07:40:28;69.43;;;12.50;;
32038;SDS011;18549;42.286;22.688;2023-01-19T07:42:56;62.60;;;12.07;;
32038;SDS011;18549;42.286;22.688;2023-01-19T07:45:23;62.27;;;12.47;;
32038;SDS011;18549;42.286;22.688;2023-01-19T07:47:51;75.60;;;15.57;;
32038;SDS011;18549;42.286;22.688;2023-01-19T07:50:18;67.30;;;10.53;;
32038;SDS011;18549;42.286;22.688;2023-01-19T07:52:48;50.93;;;10.97;;
32038;SDS011;18549;42.286;22.688;2023-01-19T07:55:17;91.47;;;14.47;;
32038;SDS011;18549;42.286;22.688;2023-01-19T07:57:44;67.37;;;12.87;;
32038;SDS011;18549;42.286;22.688;2023-01-19T08:00:12;59.23;;;11.07;;
32038;SDS011;18549;42.286;22.688;2023-01-19T08:02:39;76.13;;;15.17;;
32038;SDS011;18549;42.286;22.688;2023-01-19T08:05:06;77.70;;;14.57;;
32038;SDS011;18549;42.286;22.688;2023-01-19T08:07:33;74.17;;;12.00;;
32038;SDS011;18549;42.286;22.688;2023-01-19T08:10:00;68.43;;;12.50;;
32038;SDS011;18549;42.286;22.688;2023-01-19T08:12:27;102.07;;;44.40;;
32038;SDS011;18549;42.286;22.688;2023-01-19T08:14:54;66.47;;;13.90;;
32038;SDS011;18549;42.286;22.688;2023-01-19T08:17:22;65.37;;;11.13;;
32038;SDS011;18549;42.286;22.688;2023-01-19T08:19:49;65.30;;;10.67;;
32038;SDS011;18549;42.286;22.688;2023-01-19T08:22:15;57.00;;;10.27;;
32038;SDS011;18549;42.286;22.688;2023-01-19T08:24:42;65.43;;;10.33;;
32038;SDS011;18549;42.286;22.688;2023-01-19T08:27:09;59.60;;;10.87;;
32038;SDS011;18549;42.286;22.688;2023-01-19T08:29:36;72.60;;;12.50;;
32038;SDS011;18549;42.286;22.688;2023-01-19T08:32:03;65.10;;;10.77;;
32038;SDS011;18549;42.286;22.688;2023-01-19T08:34:32;53.33;;;10.93;;
32038;SDS011;18549;42.286;22.688;2023-01-19T08:36:58;54.53;;;10.00;;
32038;SDS011;18549;42.286;22.688;2023-01-19T08:39:25;53.87;;;11.47;;
32038;SDS011;18549;42.286;22.688;2023-01-19T08:41:52;57.90;;;10.57;;
32038;SDS011;18549;42.286;22.688;2023-01-19T08:44:19;63.40;;;10.73;;
32038;SDS011;18549;42.286;22.688;2023-01-19T08:46:46;58.97;;;9.80;;
32038;SDS011;18549;42.286;22.688;2023-01-19T08:49:13;65.83;;;10.47;;
32038;SDS011;18549;42.286;22.688;2023-01-19T08:51:42;88.40;;;30.77;;
32038;SDS011;18549;42.286;22.688;2023-01-19T08:54:11;78.10;;;15.03;;
32038;SDS011;18549;42.286;22.688;2023-01-19T08:56:38;69.13;;;11.40;;
32038;SDS011;18549;42.286;22.688;2023-01-19T08:59:04;44.50;;;10.37;;
32038;SDS011;18549;42.286;22.688;2023-01-19T09:01:31;63.43;;;11.13;;
32038;SDS011;18549;42.286;22.688;2023-01-19T09:03:58;65.30;;;11.10;;
32038;SDS011;18549;42.286;22.688;2023-01-19T09:06:25;49.97;;;12.17;;
32038;SDS011;18549;42.286;22.688;2023-01-19T09:08:53;60.70;;;10.77;;
32038;SDS011;18549;42.286;22.688;2023-01-19T09:11:21;56.37;;;9.10;;
32038;SDS011;18549;42.286;22.688;2023-01-19T09:13:48;69.90;;;11.47;;
32038;SDS011;18549;42.286;22.688;2023-01-19T09:16:17;62.07;;;11.80;;
32038;SDS011;18549;42.286;22.688;2023-01-19T09:18:44;67.33;;;12.17;;
32038;SDS011;18549;42.286;22.688;2023-01-19T09:21:11;60.80;;;11.10;;
32038;SDS011;18549;42.286;22.688;2023-01-19T09:23:39;62.93;;;11.30;;
32038;SDS011;18549;42.286;22.688;2023-01-19T09:26:07;66.43;;;10.30;;
32038;SDS011;18549;42.286;22.688;2023-01-19T09:28:35;65.50;;;12.30;;
32038;SDS011;18549;42.286;22.688;2023-01-19T09:31:03;63.40;;;11.17;;
32038;SDS011;18549;42.286;22.688;2023-01-19T09:33:31;56.57;;;11.50;;
32038;SDS011;18549;42.286;22.688;2023-01-19T09:35:58;66.13;;;15.50;;
32038;SDS011;18549;42.286;22.688;2023-01-19T09:38:26;65.73;;;15.30;;
32038;SDS011;18549;42.286;22.688;2023-01-19T09:40:55;71.93;;;14.67;;
32038;SDS011;18549;42.286;22.688;2023-01-19T09:43:29;64.90;;;12.60;;
32038;SDS011;18549;42.286;22.688;2023-01-19T09:46:01;43.40;;;8.33;;
32038;SDS011;18549;42.286;22.688;2023-01-19T09:48:33;54.67;;;14.73;;
32038;SDS011;18549;42.286;22.688;2023-01-19T09:51:09;62.43;;;11.57;;
32038;SDS011;18549;42.286;22.688;2023-01-19T09:53:42;48.43;;;8.60;;
32038;SDS011;18549;42.286;22.688;2023-01-19T09:56:16;66.05;;;12.55;;
32038;SDS011;18549;42.286;22.688;2023-01-19T09:58:46;60.47;;;10.30;;
32038;SDS011;18549;42.286;22.688;2023-01-19T10:01:18;67.17;;;11.57;;
32038;SDS011;18549;42.286;22.688;2023-01-19T10:04:08;73.00;;;16.03;;
32038;SDS011;18549;42.286;22.688;2023-01-19T10:07:08;60.67;;;10.07;;
32038;SDS011;18549;42.286;22.688;2023-01-19T10:09:52;63.53;;;12.40;;
32038;SDS011;18549;42.286;22.688;2023-01-19T10:12:30;69.53;;;11.87;;
32038;SDS011;18549;42.286;22.688;2023-01-19T10:15:05;63.50;;;14.27;;
32038;SDS011;18549;42.286;22.688;2023-01-19T10:17:43;56.47;;;11.67;;
32038;SDS011;18549;42.286;22.688;2023-01-19T10:20:18;63.17;;;10.07;;
32038;SDS011;18549;42.286;22.688;2023-01-19T10:22:51;66.83;;;16.87;;
32038;SDS011;18549;42.286;22.688;2023-01-19T10:25:19;65.00;;;13.07;;
32038;SDS011;18549;42.286;22.688;2023-01-19T10:27:48;47.40;;;9.67;;
32038;SDS011;18549;42.286;22.688;2023-01-19T10:30:17;51.60;;;10.00;;
32038;SDS011;18549;42.286;22.688;2023-01-19T10:32:47;59.07;;;15.40;;
32038;SDS011;18549;42.286;22.688;2023-01-19T10:35:18;54.23;;;10.70;;
32038;SDS011;18549;42.286;22.688;2023-01-19T10:37:49;84.50;;;33.27;;
32038;SDS011;18549;42.286;22.688;2023-01-19T10:40:19;47.43;;;10.57;;
32038;SDS011;18549;42.286;22.688;2023-01-19T10:42:54;47.17;;;11.77;;
32038;SDS011;18549;42.286;22.688;2023-01-19T10:45:24;56.57;;;10.27;;
32038;SDS011;18549;42.286;22.688;2023-01-19T10:47:53;48.08;;;9.50;;
32038;SDS011;18549;42.286;22.688;2023-01-19T10:50:23;37.53;;;9.33;;
32038;SDS011;18549;42.286;22.688;2023-01-19T10:52:52;44.67;;;10.73;;
32038;SDS011;18549;42.286;22.688;2023-01-19T10:55:24;41.47;;;6.63;;
32038;SDS011;18549;42.286;22.688;2023-01-19T10:57:53;41.70;;;8.10;;
32038;SDS011;18549;42.286;22.688;2023-01-19T11:00:29;54.43;;;9.87;;
32038;SDS011;18549;42.286;22.688;2023-01-19T11:02:58;77.57;;;25.27;;
32038;SDS011;18549;42.286;22.688;2023-01-19T11:05:26;51.73;;;9.07;;
32038;SDS011;18549;42.286;22.688;2023-01-19T11:07:54;48.97;;;8.57;;
32038;SDS011;18549;42.286;22.688;2023-01-19T11:10:22;47.93;;;10.23;;
32038;SDS011;18549;42.286;22.688;2023-01-19T11:12:59;43.20;;;12.73;;
32038;SDS011;18549;42.286;22.688;2023-01-19T11:15:33;38.73;;;7.33;;
32038;SDS011;18549;42.286;22.688;2023-01-19T11:18:06;37.20;;;7.53;;
32038;SDS011;18549;42.286;22.688;2023-01-19T11:20:39;46.75;;;8.52;;
32038;SDS011;18549;42.286;22.688;2023-01-19T11:23:24;43.75;;;8.70;;
32038;SDS011;18549;42.286;22.688;2023-01-19T11:25:53;46.13;;;7.80;;
32038;SDS011;18549;42.286;22.688;2023-01-19T11:28:25;38.90;;;8.98;;
32038;SDS011;18549;42.286;22.688;2023-01-19T11:30:57;28.77;;;7.60;;
32038;SDS011;18549;42.286;22.688;2023-01-19T11:33:27;35.60;;;7.00;;
32038;SDS011;18549;42.286;22.688;2023-01-19T11:36:03;38.83;;;6.50;;
32038;SDS011;18549;42.286;22.688;2023-01-19T11:38:32;42.67;;;8.13;;
32038;SDS011;18549;42.286;22.688;2023-01-19T11:41:07;46.47;;;6.77;;
32038;SDS011;18549;42.286;22.688;2023-01-19T11:43:43;33.70;;;7.32;;
32038;SDS011;18549;42.286;22.688;2023-01-19T11:46:13;23.73;;;5.40;;
32038;SDS011;18549;42.286;22.688;2023-01-19T11:48:42;31.75;;;5.68;;
32038;SDS011;18549;42.286;22.688;2023-01-19T11:51:13;32.22;;;6.22;;
32038;SDS011;18549;42.286;22.688;2023-01-19T11:53:43;41.95;;;6.93;;
32038;SDS011;18549;42.286;22.688;2023-01-19T11:56:14;27.23;;;6.00;;
32038;SDS011;18549;42.286;22.688;2023-01-19T11:58:42;48.83;;;9.13;;
32038;SDS011;18549;42.286;22.688;2023-01-19T12:01:15;33.05;;;6.10;;
32038;SDS011;18549;42.286;22.688;2023-01-19T12:03:45;30.50;;;6.25;;
32038;SDS011;18549;42.286;22.688;2023-01-19T12:06:19;31.33;;;7.03;;
32038;SDS011;18549;42.286;22.688;2023-01-19T12:08:51;23.98;;;5.45;;
32038;SDS011;18549;42.286;22.688;2023-01-19T12:11:21;24.67;;;6.75;;
32038;SDS011;18549;42.286;22.688;2023-01-19T12:13:54;29.92;;;9.13;;
32038;SDS011;18549;42.286;22.688;2023-01-19T12:16:23;36.33;;;6.73;;
32038;SDS011;18549;42.286;22.688;2023-01-19T12:18:53;42.62;;;7.03;;
32038;SDS011;18549;42.286;22.688;2023-01-19T12:21:23;43.47;;;8.35;;
32038;SDS011;18549;42.286;22.688;2023-01-19T12:23:52;33.17;;;6.37;;
32038;SDS011;18549;42.286;22.688;2023-01-19T12:26:31;41.58;;;6.75;;
32038;SDS011;18549;42.286;22.688;2023-01-19T12:29:06;31.73;;;8.63;;
32038;SDS011;18549;42.286;22.688;2023-01-19T12:31:39;32.92;;;7.72;;
32038;SDS011;18549;42.286;22.688;2023-01-19T12:37:05;41.08;;;8.70;;
32038;SDS011;18549;42.286;22.688;2023-01-19T12:40:02;29.80;;;5.40;;
32038;SDS011;18549;42.286;22.688;2023-01-19T12:42:43;26.20;;;4.80;;
32038;SDS011;18549;42.286;22.688;2023-01-19T12:45:13;30.10;;;5.62;;
32038;SDS011;18549;42.286;22.688;2023-01-19T12:47:50;27.43;;;5.63;;
32038;SDS011;18549;42.286;22.688;2023-01-19T12:50:17;34.43;;;6.27;;
32038;SDS011;18549;42.286;22.688;2023-01-19T12:52:48;23.62;;;4.62;;
32038;SDS011;18549;42.286;22.688;2023-01-19T12:55:21;31.47;;;5.83;;
32038;SDS011;18549;42.286;22.688;2023-01-19T12:57:55;28.92;;;6.18;;
32038;SDS011;18549;42.286;22.688;2023-01-19T13:00:30;27.55;;;5.32;;
32038;SDS011;18549;42.286;22.688;2023-01-19T13:03:04;27.42;;;5.50;;
32038;SDS011;18549;42.286;22.688;2023-01-19T13:06:04;28.27;;;6.68;;
32038;SDS011;18549;42.286;22.688;2023-01-19T13:11:24;27.73;;;5.40;;
32038;SDS011;18549;42.286;22.688;2023-01-19T13:16:58;31.03;;;7.70;;
32038;SDS011;18549;42.286;22.688;2023-01-19T13:19:44;27.73;;;5.20;;
32038;SDS011;18549;42.286;22.688;2023-01-19T13:25:30;25.67;;;5.20;;
32038;SDS011;18549;42.286;22.688;2023-01-19T13:27:59;29.93;;;4.63;;
32038;SDS011;18549;42.286;22.688;2023-01-19T13:30:27;15.03;;;3.70;;
32038;SDS011;18549;42.286;22.688;2023-01-19T13:32:55;24.30;;;4.83;;
32038;SDS011;18549;42.286;22.688;2023-01-19T13:35:29;28.23;;;6.73;;
32038;SDS011;18549;42.286;22.688;2023-01-19T13:37:56;25.48;;;4.78;;
32038;SDS011;18549;42.286;22.688;2023-01-19T13:40:26;16.67;;;4.57;;
32038;SDS011;18549;42.286;22.688;2023-01-19T13:42:58;25.47;;;5.10;;
32038;SDS011;18549;42.286;22.688;2023-01-19T13:45:28;21.63;;;4.97;;
32038;SDS011;18549;42.286;22.688;2023-01-19T13:47:58;27.77;;;5.55;;
32038;SDS011;18549;42.286;22.688;2023-01-19T13:50:27;34.25;;;5.70;;
32038;SDS011;18549;42.286;22.688;2023-01-19T13:52:56;25.95;;;5.50;;
32038;SDS011;18549;42.286;22.688;2023-01-19T13:55:24;23.85;;;5.55;;
32038;SDS011;18549;42.286;22.688;2023-01-19T13:57:52;22.67;;;6.37;;
32038;SDS011;18549;42.286;22.688;2023-01-19T14:00:20;26.42;;;5.35;;
32038;SDS011;18549;42.286;22.688;2023-01-19T14:02:56;20.58;;;5.80;;
32038;SDS011;18549;42.286;22.688;2023-01-19T14:05:25;17.50;;;6.45;;
32038;SDS011;18549;42.286;22.688;2023-01-19T14:08:02;26.08;;;5.53;;
32038;SDS011;18549;42.286;22.688;2023-01-19T14:10:31;25.90;;;5.07;;
32038;SDS011;18549;42.286;22.688;2023-01-19T14:12:59;26.20;;;5.70;;
32038;SDS011;18549;42.286;22.688;2023-01-19T14:15:27;15.88;;;4.43;;
32038;SDS011;18549;42.286;22.688;2023-01-19T14:18:07;26.10;;;6.40;;
32038;SDS011;18549;42.286;22.688;2023-01-19T14:20:36;23.90;;;5.55;;
32038;SDS011;18549;42.286;22.688;2023-01-19T14:23:05;22.37;;;5.65;;
32038;SDS011;18549;42.286;22.688;2023-01-19T14:25:52;29.40;;;6.85;;
32038;SDS011;18549;42.286;22.688;2023-01-19T14:28:25;28.33;;;7.83;;
32038;SDS011;18549;42.286;22.688;2023-01-19T14:31:15;30.07;;;7.57;;
32038;SDS011;18549;42.286;22.688;2023-01-19T14:33:45;22.65;;;5.10;;
32038;SDS011;18549;42.286;22.688;2023-01-19T14:36:21;29.47;;;6.20;;
32038;SDS011;18549;42.286;22.688;2023-01-19T14:38:54;27.77;;;5.73;;
32038;SDS011;18549;42.286;22.688;2023-01-19T14:41:24;32.67;;;5.67;;
32038;SDS011;18549;42.286;22.688;2023-01-19T14:43:54;24.47;;;8.27;;